Terminal Aerodrome Forecast
Issued by NWS Portland, OR

Home | Current Version | Previous Version | Text Only | Print | Product List | Glossary On
Versions: 1 2 3 4 5 6 7 8 9 10 11 12 13 14 15 16 17 18 19 20 21 22 23 24 25 26 27 28 29 30 31 32 33 34 35 36 37
000
FTUS46 KPQR 120813 AAB
TAFHIO
TAF AMD
KHIO 120813Z 1208/1306 10002KT 4SM BR BKN015 OVC080
     FM121700 00000KT 2SM -RA BR OVC020
     FM122300 22005KT 3SM BR BKN035
     FM130000 23005KT 6SM HZ SCT250
     FM130300 23003KT 2SM BR BKN050
     FM130400 22003KT 2SM BR OVC003=

USA.gov is the U.S. government's official web portal to all federal, state and local government web resources and services.